createdAt,value
2022-08-04T00:02:41.398Z,4.25
2022-08-04T00:05:29.271Z,2.55
2022-08-04T00:08:16.896Z,5.70
2022-08-04T00:10:50.405Z,3.47
2022-08-04T00:13:24.248Z,3.03
2022-08-04T00:15:58.714Z,1.60
2022-08-04T00:18:34.976Z,3.65
2022-08-04T00:21:06.836Z,2.30
2022-08-04T00:24:11.831Z,2.78
2022-08-04T00:26:23.186Z,2.20
2022-08-04T00:28:53.584Z,5.68
2022-08-04T00:31:53.630Z,1.80
2022-08-04T00:34:13.131Z,3.33
2022-08-04T00:36:43.093Z,4.63
2022-08-04T00:39:14.080Z,3.92
2022-08-04T00:42:01.276Z,4.80
2022-08-04T00:44:55.825Z,4.28
2022-08-04T00:47:49.926Z,4.28
2022-08-04T00:50:31.991Z,4.43
2022-08-04T00:53:06.657Z,2.40
2022-08-04T00:55:51.718Z,4.93
2022-08-04T00:58:47.311Z,1.63
2022-08-04T01:01:45.519Z,8.68
2022-08-04T01:04:36.521Z,4.60
2022-08-04T01:07:23.715Z,4.28
2022-08-04T01:10:07.768Z,2.30
2022-08-04T01:12:59.041Z,3.33
2022-08-04T01:16:05.392Z,3.13
2022-08-04T01:18:53.170Z,3.45
2022-08-04T01:21:29.524Z,2.70
2022-08-04T01:24:24.762Z,2.80
2022-08-04T01:27:04.402Z,5.32
2022-08-04T01:29:46.841Z,1.95
2022-08-04T01:34:51.802Z,2.47
2022-08-04T01:37:50.134Z,2.63
2022-08-04T01:40:17.388Z,3.03
2022-08-04T01:42:46.166Z,5.22
2022-08-04T01:45:15.082Z,3.40
2022-08-04T01:47:53.699Z,6.15
2022-08-04T01:50:21.993Z,5.57
2022-08-04T01:52:52.515Z,3.45
2022-08-04T01:55:19.947Z,5.05
2022-08-04T01:57:52.121Z,5.72
2022-08-04T02:00:29.087Z,2.38
2022-08-04T02:02:57.592Z,3.97
2022-08-04T02:06:03.082Z,2.95
2022-08-04T02:08:32.742Z,3.20
2022-08-04T02:11:20.855Z,3.03
2022-08-04T02:14:40.142Z,3.03
2022-08-04T02:17:41.724Z,5.88
2022-08-04T02:20:31.077Z,3.30
2022-08-04T02:23:09.836Z,5.55
2022-08-04T02:26:04.994Z,2.58
2022-08-04T02:29:14.982Z,3.38
2022-08-04T02:32:05.381Z,3.25
2022-08-04T02:34:50.791Z,3.15
2022-08-04T02:37:18.587Z,3.45
2022-08-04T02:39:49.489Z,2.63
2022-08-04T02:42:17.407Z,3.33
2022-08-04T02:44:50.830Z,5.32
2022-08-04T02:47:24.708Z,3.80
2022-08-04T02:50:14.592Z,3.50
2022-08-04T02:52:59.028Z,3.05
2022-08-04T02:55:29.048Z,1.92
2022-08-04T02:57:58.787Z,6.45
2022-08-04T03:00:26.604Z,4.95
2022-08-04T03:03:06.306Z,1.60
2022-08-04T03:06:00.739Z,2.22
2022-08-04T03:08:54.644Z,5.72
2022-08-04T03:11:36.458Z,6.00
2022-08-04T03:14:30.302Z,2.80
2022-08-04T03:17:03.737Z,1.92
2022-08-04T03:20:11.720Z,4.00
2022-08-04T03:23:15.293Z,2.58
2022-08-04T03:26:19.190Z,5.82
2022-08-04T03:29:10.405Z,4.15
2022-08-04T03:32:14.184Z,4.07
2022-08-04T03:35:22.980Z,6.57
2022-08-04T03:47:58.676Z,4.15
2022-08-04T03:51:35.109Z,5.97
2022-08-04T03:54:40.117Z,8.20
2022-08-04T03:57:34.587Z,3.00
2022-08-04T04:00:09.449Z,3.53
2022-08-04T04:02:59.659Z,5.15
2022-08-04T04:06:23.635Z,5.82
2022-08-04T04:09:29.348Z,5.22
2022-08-04T04:12:30.600Z,5.47
2022-08-04T04:15:25.326Z,6.10
2022-08-04T04:18:11.159Z,6.22
2022-08-04T04:21:04.014Z,4.07
2022-08-04T04:23:58.086Z,5.47
2022-08-04T04:26:46.815Z,2.42
2022-08-04T04:29:19.119Z,4.32
2022-08-04T04:31:57.877Z,5.53
2022-08-04T04:35:05.331Z,7.07
2022-08-04T04:38:10.266Z,5.57
2022-08-04T04:40:58.672Z,5.82
2022-08-04T04:43:52.794Z,3.30
2022-08-04T04:46:35.635Z,8.73
2022-08-04T04:49:26.014Z,3.97
2022-08-04T04:52:10.032Z,4.57
2022-08-04T04:54:41.681Z,5.28
2022-08-04T04:57:18.743Z,3.80
2022-08-04T04:59:53.955Z,6.65
2022-08-04T05:02:32.839Z,4.18
2022-08-04T05:05:38.557Z,7.70
2022-08-04T05:08:54.022Z,4.10
2022-08-04T05:11:45.420Z,4.82
2022-08-04T05:14:38.595Z,2.92
2022-08-04T05:17:23.777Z,2.88
2022-08-04T05:20:19.662Z,3.90
2022-08-04T05:22:58.309Z,8.02
2022-08-04T05:25:36.386Z,3.13
2022-08-04T05:28:12.784Z,2.72
2022-08-04T05:30:48.722Z,7.25
2022-08-04T05:33:29.332Z,6.00
2022-08-04T05:36:23.523Z,5.55
2022-08-04T05:38:52.508Z,7.88
2022-08-04T05:41:21.452Z,3.75
2022-08-04T05:43:49.995Z,4.20
2022-08-04T05:46:18.444Z,6.07
2022-08-04T05:48:46.978Z,3.70
2022-08-04T05:51:15.392Z,3.90
2022-08-04T05:53:44.466Z,3.97
2022-08-04T05:56:14.449Z,8.32
2022-08-04T05:58:43.289Z,3.05
2022-08-04T06:01:12.700Z,4.07
2022-08-04T06:03:40.120Z,3.33
2022-08-04T06:06:09.595Z,7.38
2022-08-04T06:08:36.667Z,7.25
2022-08-04T06:11:08.021Z,3.60
2022-08-04T06:13:50.942Z,12.48
2022-08-04T06:16:30.294Z,12.80
2022-08-04T06:20:02.310Z,8.85
2022-08-04T06:21:50.338Z,9.02
2022-08-04T06:24:24.448Z,8.13
2022-08-04T06:26:53.359Z,10.60
2022-08-04T06:29:27.037Z,12.68
2022-08-04T06:32:27.917Z,8.82
2022-08-04T06:34:46.637Z,14.93
2022-08-04T06:37:43.113Z,7.07
2022-08-04T06:40:29.377Z,7.13
2022-08-04T06:42:52.645Z,11.98
2022-08-04T06:45:21.177Z,9.73
2022-08-04T06:47:49.515Z,10.02
2022-08-04T06:51:31.982Z,9.13
2022-08-04T06:53:05.074Z,10.95
2022-08-04T06:55:33.504Z,11.23
2022-08-04T06:58:03.410Z,10.70
2022-08-04T07:00:32.966Z,13.05
2022-08-04T07:03:00.443Z,9.50
2022-08-04T07:05:28.554Z,10.93
2022-08-04T07:07:58.411Z,13.15
2022-08-04T07:10:28.160Z,15.10
2022-08-04T07:12:59.940Z,12.85
2022-08-04T07:15:27.713Z,11.98
2022-08-04T07:18:00.465Z,12.60
2022-08-04T07:20:34.040Z,13.38
2022-08-04T07:23:07.687Z,10.77
2022-08-04T07:26:01.029Z,13.00
2022-08-04T07:28:26.025Z,17.35
2022-08-04T07:30:54.514Z,12.35
2022-08-04T07:33:22.686Z,11.80
2022-08-04T07:36:09.480Z,10.75
2022-08-04T07:38:51.025Z,10.68
2022-08-04T07:41:41.037Z,10.23
2022-08-04T07:44:10.403Z,12.57
2022-08-04T07:46:37.919Z,10.10
2022-08-04T07:49:06.779Z,8.00
2022-08-04T07:51:35.827Z,16.17
2022-08-04T07:54:05.175Z,10.93
2022-08-04T07:56:34.123Z,9.85
2022-08-04T07:59:02.556Z,14.18
2022-08-04T08:01:30.555Z,11.70
2022-08-04T08:03:58.813Z,8.07
2022-08-04T08:06:33.091Z,10.57
2022-08-04T08:09:02.114Z,9.27
2022-08-04T08:12:35.112Z,12.95
2022-08-04T08:14:30.332Z,5.82
2022-08-04T08:17:00.307Z,8.40
2022-08-04T08:19:27.371Z,4.65
2022-08-04T08:21:59.281Z,5.07
2022-08-04T08:24:34.801Z,11.07
2022-08-04T08:27:04.379Z,8.30
2022-08-04T08:29:34.457Z,9.23
2022-08-04T08:32:07.736Z,5.00
2022-08-04T08:34:37.503Z,6.70
2022-08-04T08:37:20.274Z,10.38
2022-08-04T08:39:59.595Z,12.55
2022-08-04T08:42:39.749Z,7.70
2022-08-04T08:45:33.894Z,11.90
2022-08-04T08:48:15.089Z,7.50
2022-08-04T08:51:00.876Z,13.73
2022-08-04T08:53:49.297Z,11.18
2022-08-04T08:56:40.433Z,9.20
2022-08-04T08:59:19.188Z,6.88
2022-08-04T09:02:03.493Z,5.70
2022-08-04T09:05:02.579Z,8.02
2022-08-04T09:07:38.590Z,8.38
2022-08-04T09:10:43.379Z,13.35
2022-08-04T09:13:32.875Z,9.52
2022-08-04T09:16:14.620Z,10.35
2022-08-04T09:18:47.691Z,15.40
2022-08-04T09:21:32.061Z,8.35
2022-08-04T09:24:36.491Z,10.05
2022-08-04T09:27:13.436Z,14.00
2022-08-04T09:29:43.304Z,7.78
2022-08-04T09:32:34.647Z,8.07
2022-08-04T09:35:17.136Z,4.47
2022-08-04T09:38:08.775Z,15.30
2022-08-04T09:40:53.364Z,10.25
2022-08-04T09:43:59.022Z,12.52
2022-08-04T09:46:47.026Z,7.13
2022-08-04T09:49:23.485Z,4.47
2022-08-04T09:52:05.794Z,6.80
2022-08-04T09:54:38.869Z,7.20
2022-08-04T09:57:22.208Z,11.73
2022-08-04T10:00:20.519Z,8.85
2022-08-04T10:03:11.576Z,15.10
2022-08-04T10:06:09.323Z,8.73
2022-08-04T10:09:13.481Z,7.47
2022-08-04T10:12:17.922Z,10.10
2022-08-04T10:14:57.766Z,12.80
2022-08-04T10:17:52.350Z,5.85
2022-08-04T10:20:58.265Z,11.82
2022-08-04T10:24:01.773Z,8.13
2022-08-04T10:26:42.805Z,12.88
2022-08-04T10:29:26.466Z,8.05
2022-08-04T10:32:18.240Z,12.60
2022-08-04T10:35:15.867Z,8.07
2022-08-04T10:38:00.229Z,8.93
2022-08-04T10:40:54.441Z,5.55
2022-08-04T10:44:04.921Z,12.52
2022-08-04T10:46:37.568Z,13.45
2022-08-04T10:49:23.177Z,9.63
2022-08-04T10:51:58.672Z,8.15
2022-08-04T10:54:32.972Z,7.38
2022-08-04T10:57:07.059Z,16.23
2022-08-04T11:00:03.547Z,5.53
2022-08-04T11:02:41.856Z,7.82
2022-08-04T11:06:06.170Z,5.07
2022-08-04T11:08:37.612Z,10.15
2022-08-04T11:11:16.826Z,6.10
2022-08-04T11:13:57.881Z,13.95
2022-08-04T11:19:53.537Z,9.65
2022-08-04T11:22:27.361Z,13.40
2022-08-04T11:28:35.290Z,9.90
2022-08-04T11:40:13.685Z,8.88
2022-08-04T11:42:50.876Z,9.50
2022-08-04T11:45:28.007Z,7.03
2022-08-04T11:48:00.710Z,13.52
2022-08-04T11:50:30.289Z,11.93
2022-08-04T11:52:59.503Z,9.10
2022-08-04T11:55:28.654Z,6.78
2022-08-04T11:57:56.890Z,13.85
2022-08-04T12:00:28.187Z,14.88
2022-08-04T12:03:13.613Z,10.45
2022-08-04T12:06:20.959Z,7.32
2022-08-04T12:09:02.446Z,10.45
2022-08-04T12:11:44.331Z,15.80
2022-08-04T12:14:30.771Z,7.75
2022-08-04T12:17:01.854Z,6.30
2022-08-04T12:20:03.207Z,13.18
2022-08-04T12:22:41.044Z,11.45
2022-08-04T12:25:16.481Z,12.55
2022-08-04T12:27:58.097Z,13.50
2022-08-04T12:30:54.134Z,11.75
2022-08-04T12:34:04.191Z,11.45
2022-08-04T12:36:56.003Z,15.27
2022-08-04T12:39:26.062Z,7.90
2022-08-04T12:42:02.236Z,8.45
2022-08-04T12:44:39.018Z,12.32
2022-08-04T12:47:27.160Z,14.10
2022-08-04T12:50:02.393Z,11.70
2022-08-04T12:53:04.029Z,9.00
2022-08-04T12:55:35.232Z,10.30
2022-08-04T12:58:11.043Z,7.82
2022-08-04T13:00:41.629Z,15.98
2022-08-04T13:03:15.638Z,12.65
2022-08-04T13:05:45.478Z,11.85
2022-08-04T13:08:13.879Z,10.60
2022-08-04T13:10:47.104Z,10.48
2022-08-04T13:13:21.510Z,8.68
2022-08-04T13:15:57.834Z,9.27
2022-08-04T13:18:31.871Z,10.63
2022-08-04T13:21:19.637Z,13.38
2022-08-04T13:24:09.905Z,14.00
2022-08-04T13:26:54.615Z,14.45
2022-08-04T13:29:59.660Z,14.98
2022-08-04T13:32:18.705Z,10.02
2022-08-04T13:34:49.485Z,12.23
2022-08-04T13:37:26.441Z,15.48
2022-08-04T13:39:56.513Z,11.25
2022-08-04T13:42:26.498Z,16.13
2022-08-04T13:44:57.943Z,13.25
2022-08-04T13:47:34.494Z,14.93
2022-08-04T13:50:13.199Z,15.02
2022-08-04T13:52:42.245Z,12.88
2022-08-04T13:55:25.900Z,15.65
2022-08-04T13:58:21.487Z,16.98
2022-08-04T14:00:54.994Z,11.52
2022-08-04T14:03:53.434Z,15.57
2022-08-04T14:06:34.829Z,13.30
2022-08-04T14:09:09.497Z,11.40
2022-08-04T14:12:10.949Z,13.63
2022-08-04T14:14:30.941Z,15.90
2022-08-04T14:17:20.006Z,17.50
2022-08-04T14:19:50.551Z,13.15
2022-08-04T14:22:26.778Z,18.02
2022-08-04T14:24:59.785Z,10.50
2022-08-04T14:27:29.586Z,11.63
2022-08-04T14:29:57.059Z,10.32
2022-08-04T14:32:26.502Z,12.00
2022-08-04T14:34:53.864Z,9.82
2022-08-04T14:37:22.659Z,12.90
2022-08-04T14:40:17.888Z,15.02
2022-08-04T14:45:54.733Z,10.63
2022-08-04T14:48:22.651Z,9.40
2022-08-04T14:50:54.000Z,16.20
2022-08-04T14:53:26.371Z,6.35
2022-08-04T14:55:57.176Z,12.90
2022-08-04T14:58:33.694Z,13.05
2022-08-04T15:01:09.667Z,7.90
2022-08-04T15:03:50.685Z,12.10
2022-08-04T15:06:23.265Z,10.02
2022-08-04T15:08:52.765Z,12.90
2022-08-04T15:11:23.045Z,8.68
2022-08-04T15:13:53.174Z,8.30
2022-08-04T15:16:22.001Z,11.68
2022-08-04T15:18:50.450Z,14.65
2022-08-04T15:21:17.861Z,11.25
2022-08-04T15:23:44.980Z,7.65
2022-08-04T15:26:37.782Z,9.40
2022-08-04T15:29:16.699Z,6.32
2022-08-04T15:32:04.693Z,6.25
2022-08-04T15:34:46.713Z,5.28
2022-08-04T15:37:19.373Z,8.48
2022-08-04T15:39:56.860Z,5.18
2022-08-04T15:42:42.169Z,7.05
2022-08-04T15:46:37.394Z,10.45
2022-08-04T15:48:11.791Z,8.35
2022-08-04T15:51:15.058Z,7.10
2022-08-04T15:54:02.298Z,8.98
2022-08-04T15:56:29.717Z,6.97
2022-08-04T15:58:57.789Z,6.95
2022-08-04T16:01:25.511Z,5.07
2022-08-04T16:03:59.707Z,8.05
2022-08-04T16:06:29.611Z,6.13
2022-08-04T16:09:01.241Z,6.28
2022-08-04T16:11:37.241Z,3.65
2022-08-04T16:14:04.923Z,4.72
2022-08-04T16:16:46.827Z,7.70
2022-08-04T16:22:35.830Z,8.23
2022-08-04T16:25:02.965Z,6.57
2022-08-04T16:27:42.015Z,5.32
2022-08-04T16:30:15.202Z,9.45
2022-08-04T16:32:46.861Z,9.50
2022-08-04T16:35:21.642Z,10.30
2022-08-04T16:37:48.761Z,8.30
2022-08-04T16:40:38.988Z,11.70
2022-08-04T16:43:13.414Z,7.47
2022-08-04T16:45:43.272Z,9.40
2022-08-04T16:48:12.105Z,10.45
2022-08-04T16:51:06.805Z,7.88
2022-08-04T16:53:53.358Z,8.75
2022-08-04T16:56:33.899Z,5.72
2022-08-04T16:59:12.232Z,7.93
2022-08-04T17:01:50.484Z,8.60
2022-08-04T17:04:18.326Z,8.25
2022-08-04T17:06:49.379Z,8.27
2022-08-04T17:09:18.627Z,7.30
2022-08-04T17:11:47.610Z,6.38
2022-08-04T17:14:30.882Z,7.15
2022-08-04T17:17:01.815Z,6.30
2022-08-04T17:19:28.964Z,7.90
2022-08-04T17:22:04.392Z,9.13
2022-08-04T17:24:34.633Z,9.27
2022-08-04T17:27:02.007Z,5.38
2022-08-04T17:29:43.622Z,5.47
2022-08-04T17:32:22.268Z,6.38
2022-08-04T17:34:57.279Z,4.93
2022-08-04T17:37:52.526Z,7.75
2022-08-04T17:40:18.502Z,4.32
2022-08-04T17:44:03.118Z,6.97
2022-08-04T17:46:28.140Z,4.63
2022-08-04T17:49:01.024Z,3.33
2022-08-04T17:52:05.945Z,6.78
2022-08-04T17:54:40.147Z,3.85
2022-08-04T17:57:21.688Z,3.90
2022-08-04T17:59:57.908Z,4.15
2022-08-04T18:02:33.093Z,7.78
2022-08-04T18:05:06.846Z,5.78
2022-08-04T18:08:38.068Z,4.60
2022-08-04T18:10:51.828Z,5.75
2022-08-04T18:13:25.786Z,4.07
2022-08-04T18:16:05.104Z,4.97
2022-08-04T18:18:32.299Z,7.32
2022-08-04T18:21:03.202Z,5.55
2022-08-04T18:23:33.545Z,7.78
2022-08-04T18:26:03.701Z,9.15
2022-08-04T18:28:33.110Z,7.22
2022-08-04T18:31:00.747Z,7.28
2022-08-04T18:33:40.643Z,7.70
2022-08-04T18:36:32.842Z,3.97
2022-08-04T18:39:11.976Z,3.58
2022-08-04T18:42:03.977Z,5.88
2022-08-04T18:44:29.397Z,7.95
2022-08-04T18:47:22.571Z,7.63
2022-08-04T18:52:33.178Z,5.55
2022-08-04T18:55:01.884Z,7.40
2022-08-04T19:00:20.159Z,9.05
2022-08-04T19:02:47.733Z,4.75
2022-08-04T19:05:17.405Z,7.82
2022-08-04T19:08:11.096Z,3.88
2022-08-04T19:10:32.672Z,5.80
2022-08-04T19:13:01.930Z,10.23
2022-08-04T19:15:34.526Z,6.80
2022-08-04T19:18:02.466Z,7.22
2022-08-04T19:20:39.539Z,6.50
2022-08-04T19:24:30.267Z,6.97
2022-08-04T19:25:59.095Z,5.60
2022-08-04T19:28:33.944Z,6.50
2022-08-04T19:31:08.996Z,7.50
2022-08-04T19:33:58.189Z,7.45
2022-08-04T19:36:29.615Z,11.75
2022-08-04T19:39:00.673Z,6.78
2022-08-04T19:41:29.870Z,6.43
2022-08-04T19:43:58.424Z,5.20
2022-08-04T19:46:28.573Z,6.80
2022-08-04T19:48:58.881Z,7.75
2022-08-04T19:51:29.055Z,6.25
2022-08-04T19:54:03.935Z,10.30
2022-08-04T19:56:40.510Z,6.93
2022-08-04T19:59:10.275Z,11.43
2022-08-04T20:01:44.415Z,8.57
2022-08-04T20:04:14.342Z,8.70
2022-08-04T20:06:42.663Z,9.55
2022-08-04T20:09:24.652Z,7.63
2022-08-04T20:11:56.585Z,9.25
2022-08-04T20:14:32.807Z,14.05
2022-08-04T20:17:02.719Z,16.88
2022-08-04T20:19:30.394Z,14.73
2022-08-04T20:21:58.139Z,14.25
2022-08-04T20:24:41.651Z,11.55
2022-08-04T20:27:16.148Z,12.02
2022-08-04T20:29:49.005Z,10.07
2022-08-04T20:32:27.068Z,15.82
2022-08-04T20:34:56.830Z,14.18
2022-08-04T20:37:25.811Z,12.80
2022-08-04T20:40:12.618Z,11.95
2022-08-04T20:42:40.944Z,10.30
2022-08-04T20:45:16.384Z,12.93
2022-08-04T20:47:54.008Z,12.77
2022-08-04T20:50:30.273Z,17.00
2022-08-04T20:52:58.216Z,14.45
2022-08-04T20:55:26.199Z,13.93
2022-08-04T20:58:02.749Z,15.23
2022-08-04T21:00:31.548Z,15.60
2022-08-04T21:02:59.654Z,8.98
2022-08-04T21:05:26.744Z,11.90
2022-08-04T21:07:57.214Z,11.85
2022-08-04T21:10:27.623Z,13.40
2022-08-04T21:12:54.926Z,12.98
2022-08-04T21:15:50.652Z,12.02
2022-08-04T21:18:14.257Z,11.23
2022-08-04T21:20:43.265Z,12.73
2022-08-04T21:23:10.680Z,10.27
2022-08-04T21:25:42.760Z,11.95
2022-08-04T21:28:10.946Z,10.63
2022-08-04T21:30:54.091Z,11.98
2022-08-04T21:33:23.331Z,9.07
2022-08-04T21:35:53.973Z,11.00
2022-08-04T21:38:28.017Z,10.90
2022-08-04T21:40:58.283Z,11.38
2022-08-04T21:43:29.874Z,8.00
2022-08-04T21:46:10.151Z,8.80
2022-08-04T21:48:38.849Z,8.23
2022-08-04T21:51:57.366Z,15.73
2022-08-04T21:54:05.541Z,13.55
2022-08-04T21:56:33.337Z,8.52
2022-08-04T21:59:00.331Z,11.23
2022-08-04T22:01:50.477Z,11.80
2022-08-04T22:04:15.074Z,13.93
2022-08-04T22:06:42.183Z,7.88
2022-08-04T22:09:18.849Z,10.43
2022-08-04T22:11:50.732Z,13.13
2022-08-04T22:14:29.100Z,12.15
2022-08-04T22:17:01.575Z,10.05
2022-08-04T22:19:49.967Z,16.35
2022-08-04T22:25:13.424Z,11.50
2022-08-04T22:28:00.854Z,10.13
2022-08-04T22:30:36.525Z,12.57
2022-08-04T22:33:07.549Z,12.55
2022-08-04T22:35:43.358Z,14.75
2022-08-04T22:38:23.967Z,10.82
2022-08-04T22:41:01.117Z,13.07
2022-08-04T22:43:32.804Z,14.15
2022-08-04T22:46:06.373Z,12.88
2022-08-04T22:48:36.348Z,11.63
2022-08-04T22:51:05.609Z,8.80
2022-08-04T22:53:33.309Z,9.60
2022-08-04T22:56:10.117Z,9.32
2022-08-04T22:58:44.880Z,9.45
2022-08-04T23:01:14.926Z,16.52
2022-08-04T23:03:50.958Z,11.77
2022-08-04T23:06:24.573Z,10.95
2022-08-04T23:08:52.432Z,11.77
2022-08-04T23:11:19.532Z,11.00
2022-08-04T23:13:47.340Z,13.02
2022-08-04T23:16:16.972Z,10.38
2022-08-04T23:18:49.091Z,11.55
2022-08-04T23:21:17.280Z,11.63
2022-08-04T23:24:00.818Z,11.20
2022-08-04T23:26:30.963Z,9.95
2022-08-04T23:28:58.478Z,8.77
2022-08-04T23:31:40.434Z,10.25
2022-08-04T23:34:08.711Z,11.20
2022-08-04T23:36:35.713Z,11.05
2022-08-04T23:39:05.720Z,8.70
2022-08-04T23:41:54.054Z,9.13
2022-08-04T23:44:24.433Z,7.95
2022-08-04T23:47:04.446Z,9.75
2022-08-04T23:49:42.332Z,6.40
2022-08-04T23:52:27.822Z,8.63
2022-08-04T23:54:59.302Z,8.65
2022-08-04T23:57:30.922Z,12.63
